Time;durP1;ratioP1;P1;durP2;ratioP2;P2;SDS_P1;SDS_P2;PMS_P1;PMS_P2;Temp;Humidity;BMP_temperature;BMP_pressure;BME280_temperature;BME280_humidity;BME280_pressure;Samples;Min_cycle;Max_cycle;Signal;HPM_P1;HPM_P2
2023/10/14 00:01:46;;;;;;;9.85;4.25;;;;;;;16.17;69.62;100818.91;4992773;28;20037;-72
2023/10/14 00:04:11;;;;;;;8.68;4.60;;;;;;;16.30;68.95;100825.22;4992574;28;20109;-74
2023/10/14 00:06:41;;;;;;;12.75;4.95;;;;;;;16.15;69.36;100824.94;5007337;28;20066;-76
2023/10/14 00:09:13;;;;;;;20.80;5.53;;;;;;;16.04;69.73;100824.69;5007160;28;20055;-76
2023/10/14 00:11:51;;;;;;;15.10;5.00;;;;;;;15.95;69.93;100811.47;4992281;28;20038;-75
2023/10/14 00:14:18;;;;;;;15.02;5.38;;;;;;;15.83;70.55;100812.97;5005762;28;20035;-77
2023/10/14 00:16:51;;;;;;;15.77;5.40;;;;;;;15.83;70.14;100806.91;4992396;28;20104;-75
2023/10/14 00:19:18;;;;;;;14.95;5.55;;;;;;;15.31;69.76;100721.63;4992086;28;20030;-77
2023/10/14 00:21:45;;;;;;;13.70;5.60;;;;;;;15.91;68.96;100807.06;4992131;28;20088;-74
2023/10/14 00:24:10;;;;;;;10.30;5.25;;;;;;;15.90;68.30;100807.91;5007407;28;20488;-73
2023/10/14 00:26:47;;;;;;;16.88;5.38;;;;;;;15.84;68.49;100813.88;5006935;28;20030;-77
2023/10/14 00:31:48;;;;;;;14.10;5.53;;;;;;;15.59;68.00;100797.69;4992124;28;20038;-74
2023/10/14 00:34:18;;;;;;;13.30;6.47;;;;;;;15.57;68.22;100801.97;5006815;28;20026;-72
2023/10/14 00:36:44;;;;;;;10.82;5.63;;;;;;;15.62;68.29;100804.69;5006760;28;20034;-77
2023/10/14 00:39:12;;;;;;;13.73;5.85;;;;;;;15.62;68.36;100797.75;4991312;28;20022;-70
2023/10/14 00:41:43;;;;;;;12.27;6.40;;;;;;;15.65;67.76;100795.22;4990478;28;20432;-73
2023/10/14 00:44:10;;;;;;;13.32;5.72;;;;;;;15.54;68.14;100788.91;4991735;28;20048;-75
2023/10/14 00:46:42;;;;;;;14.85;6.03;;;;;;;15.49;67.44;100773.19;5006924;28;20036;-72
2023/10/14 00:49:10;;;;;;;16.60;6.00;;;;;;;15.51;67.14;100773.22;4991640;28;20027;-75
2023/10/14 00:51:42;;;;;;;20.35;7.20;;;;;;;15.51;66.89;100768.91;4991264;28;20109;-75
2023/10/14 00:57:10;;;;;;;13.70;5.18;;;;;;;15.51;66.11;100783.63;4988980;28;20114;-74
2023/10/14 00:59:37;;;;;;;13.82;5.50;;;;;;;15.50;66.32;100780.16;4949945;29;20133;-74
2023/10/14 01:02:05;;;;;;;19.20;6.40;;;;;;;15.52;66.13;100781.06;4949741;29;20136;-73
2023/10/14 01:04:34;;;;;;;15.55;7.00;;;;;;;15.42;66.02;100773.03;4950167;29;20113;-75
2023/10/14 01:14:52;;;;;;;14.35;6.40;;;;;;;14.76;68.24;100764.59;4949647;28;20496;-74
2023/10/14 01:17:36;;;;;;;12.75;6.03;;;;;;;14.71;69.28;100772.25;4950020;29;20039;-73
2023/10/14 01:22:47;;;;;;;11.35;5.70;;;;;;;14.74;69.30;100758.47;4949808;29;20031;-73
2023/10/14 01:25:15;;;;;;;14.43;5.45;;;;;;;14.76;69.12;100764.59;4949979;29;20043;-79
2023/10/14 01:27:43;;;;;;;15.95;6.13;;;;;;;14.78;68.57;100757.69;4949897;28;20047;-73
2023/10/14 01:30:19;;;;;;;11.60;5.30;;;;;;;14.41;68.93;100747.22;4962017;28;20042;-75
2023/10/14 01:37:56;;;;;;;18.33;6.05;;;;;;;14.43;69.29;100761.16;4991032;28;20030;-75
2023/10/14 01:42:49;;;;;;;10.23;5.97;;;;;;;13.84;71.66;100753.50;4991030;28;20030;-76
2023/10/14 01:45:21;;;;;;;13.52;5.88;;;;;;;13.62;72.25;100742.50;4990727;28;20476;-73
2023/10/14 01:48:00;;;;;;;16.35;6.43;;;;;;;13.46;73.21;100735.09;5005776;28;20469;-73
2023/10/14 01:50:26;;;;;;;10.73;5.82;;;;;;;13.03;73.68;100701.81;5005721;28;20030;-73
2023/10/14 01:52:53;;;;;;;11.20;5.55;;;;;;;13.12;75.13;100755.66;4990778;28;20089;-75
2023/10/14 01:55:20;;;;;;;13.48;5.65;;;;;;;12.94;75.70;100748.22;4991041;28;20050;-75
2023/10/14 01:57:47;;;;;;;9.50;5.32;;;;;;;12.75;77.40;100754.53;4990696;28;20081;-74
2023/10/14 02:00:25;;;;;;;10.27;5.55;;;;;;;12.69;77.76;100750.00;4991004;28;20034;-75
2023/10/14 02:03:05;;;;;;;9.65;5.63;;;;;;;12.65;77.66;100744.66;4990749;28;20037;-74
2023/10/14 02:05:34;;;;;;;14.25;6.47;;;;;;;12.73;77.65;100748.41;4990606;28;20117;-72
2023/10/14 02:07:59;;;;;;;14.25;6.35;;;;;;;12.59;77.77;100754.00;4990525;28;20176;-75
2023/10/14 02:10:27;;;;;;;14.30;6.70;;;;;;;12.28;78.08;100713.25;5005822;28;20109;-73
2023/10/14 02:12:53;;;;;;;13.00;7.70;;;;;;;12.49;77.97;100736.41;4990599;28;20612;-74
2023/10/14 02:15:19;;;;;;;13.73;6.85;;;;;;;12.58;77.64;100751.38;4990752;28;20065;-75
2023/10/14 02:17:47;;;;;;;10.48;6.30;;;;;;;12.73;77.48;100746.66;5006008;28;20135;-78
2023/10/14 02:20:27;;;;;;;19.10;6.63;;;;;;;12.92;76.30;100748.16;5009633;28;20117;-76
2023/10/14 02:22:57;;;;;;;13.40;6.43;;;;;;;13.08;75.08;100744.34;4994239;28;20551;-79
2023/10/14 02:25:27;;;;;;;;;;;;;;;13.25;74.70;100749.16;4994839;28;20037;-72
2023/10/14 02:27:53;;;;;;;10.85;5.80;;;;;;;13.21;74.71;100747.31;4994585;28;19918;-74
2023/10/14 02:30:18;;;;;;;16.67;5.97;;;;;;;13.30;74.79;100755.38;4994270;28;20039;-75
2023/10/14 02:32:44;;;;;;;11.15;6.50;;;;;;;13.41;74.57;100754.00;4994490;28;20042;-72
2023/10/14 02:35:12;;;;;;;13.32;6.47;;;;;;;13.38;73.28;100717.63;4994524;28;20134;-72
2023/10/14 02:37:37;;;;;;;11.88;6.05;;;;;;;13.57;71.71;100744.06;4994074;28;20518;-72
2023/10/14 02:40:08;;;;;;;13.85;6.07;;;;;;;13.59;70.50;100756.28;4993864;28;20030;-75
2023/10/14 02:42:33;;;;;;;30.45;7.57;;;;;;;13.58;71.77;100740.66;4994283;28;20039;-71
2023/10/14 02:45:03;;;;;;;13.73;6.03;;;;;;;13.59;71.31;100750.19;5009155;28;20034;-74
2023/10/14 02:47:32;;;;;;;13.02;6.25;;;;;;;13.27;72.27;100747.47;4994144;28;20027;-74
2023/10/14 02:50:05;;;;;;;9.48;5.88;;;;;;;13.26;72.36;100737.97;4994002;28;20041;-74
2023/10/14 02:52:31;;;;;;;15.30;5.72;;;;;;;13.26;72.52;100758.72;4993462;28;20026;-74
2023/10/14 02:57:41;;;;;;;13.50;6.07;;;;;;;12.76;73.75;100707.03;4993929;28;20108;-72
2023/10/14 03:00:09;;;;;;;9.35;5.65;;;;;;;12.92;74.12;100747.25;5006134;28;20113;-74
2023/10/14 03:02:48;;;;;;;13.43;5.78;;;;;;;12.87;74.06;100743.66;4997861;28;20511;-72
2023/10/14 03:05:32;;;;;;;14.85;5.82;;;;;;;12.55;73.43;100681.34;5008875;28;20026;-75
2023/10/14 03:08:10;;;;;;;10.48;5.65;;;;;;;12.96;72.78;100751.75;4993749;28;20034;-71
2023/10/14 03:10:46;;;;;;;10.30;5.90;;;;;;;13.07;70.52;100759.81;5050084;28;20033;-73
2023/10/14 03:13:12;;;;;;;9.82;5.35;;;;;;;13.10;69.18;100762.53;5049937;28;20415;-73
2023/10/14 03:15:39;;;;;;;9.80;5.35;;;;;;;13.13;68.78;100756.56;5050421;28;20040;-71
2023/10/14 03:18:06;;;;;;;12.20;5.90;;;;;;;13.10;67.34;100763.41;5050202;28;20036;-74
2023/10/14 03:20:36;;;;;;;11.63;5.53;;;;;;;13.07;66.09;100760.72;5050252;28;20052;-72
2023/10/14 03:23:11;;;;;;;12.52;4.88;;;;;;;13.08;65.50;100761.59;5049944;28;20060;-74
2023/10/14 03:25:37;;;;;;;9.48;4.68;;;;;;;12.97;65.08;100766.44;5049740;28;20036;-73
2023/10/14 03:28:21;;;;;;;11.18;5.28;;;;;;;12.82;66.82;100759.03;5050044;28;20120;-76
2023/10/14 03:30:58;;;;;;;11.52;5.20;;;;;;;12.92;68.62;100766.31;5049324;28;20033;-78
2023/10/14 03:33:32;;;;;;;12.13;5.22;;;;;;;12.90;68.94;100764.50;5050169;28;20531;-77
2023/10/14 03:36:05;;;;;;;12.35;5.32;;;;;;;12.85;69.17;100760.88;5049853;28;20056;-75
2023/10/14 03:41:10;;;;;;;12.13;5.03;;;;;;;12.76;70.19;100751.06;5035170;28;20117;-76
2023/10/14 03:46:12;;;;;;;13.40;4.80;;;;;;;12.58;71.28;100717.69;4992841;28;20027;-71
2023/10/14 03:48:46;;;;;;;24.15;6.07;;;;;;;12.68;72.01;100757.72;4992702;28;20030;-74
2023/10/14 03:51:24;;;;;;;11.57;5.38;;;;;;;12.59;71.94;100748.81;5008211;28;20102;-72
2023/10/14 03:53:52;;;;;;;14.45;5.38;;;;;;;12.53;71.86;100748.59;5007658;28;20081;-76
2023/10/14 03:56:21;;;;;;;12.90;5.30;;;;;;;12.61;70.78;100748.84;4992705;28;20027;-77
2023/10/14 03:58:47;;;;;;;;;;;;;;;12.64;70.21;100755.88;4995903;28;20124;-75
2023/10/14 04:01:13;;;;;;;13.35;4.78;;;;;;;12.40;70.38;100726.63;5011359;28;20033;-76
2023/10/14 04:03:51;;;;;;;13.32;6.13;;;;;;;12.43;69.26;100731.88;5012130;28;20480;-75
2023/10/14 04:06:17;;;;;;;12.95;5.38;;;;;;;12.46;69.17;100731.09;5011971;28;20104;-75
2023/10/14 04:08:49;;;;;;;13.35;4.53;;;;;;;12.37;68.57;100730.81;5010553;28;20775;-75
2023/10/14 04:11:25;;;;;;;11.32;4.97;;;;;;;12.23;68.95;100740.69;5020077;28;20053;-72
2023/10/14 04:16:27;;;;;;;12.35;5.32;;;;;;;12.13;68.30;100749.84;5011436;28;20074;-72
2023/10/14 04:18:59;;;;;;;;;;;;;;;12.05;68.62;100743.50;5012023;28;20160;-78
2023/10/14 04:21:34;;;;;;;15.98;5.80;;;;;;;11.90;69.27;100707.59;5010983;28;19917;-73
2023/10/14 04:24:08;;;;;;;18.92;5.18;;;;;;;11.97;69.61;100715.69;5002171;28;20030;-72
2023/10/14 04:26:35;;;;;;;9.60;4.82;;;;;;;12.11;69.93;100743.72;5001682;28;20030;-73
2023/10/14 04:29:04;;;;;;;9.30;4.68;;;;;;;12.04;70.12;100744.34;5008045;28;20124;-76
2023/10/14 04:31:39;;;;;;;15.13;5.17;;;;;;;11.95;71.19;100726.72;5003912;28;20462;-71
2023/10/14 04:34:14;;;;;;;13.57;5.10;;;;;;;12.06;69.62;100742.69;5006858;28;20273;-74
2023/10/14 04:36:53;;;;;;;14.82;4.43;;;;;;;12.08;68.44;100756.56;5006857;28;20420;-73
2023/10/14 04:39:26;;;;;;;10.25;4.22;;;;;;;11.98;68.97;100753.63;4992057;28;20554;-78
2023/10/14 04:42:22;;;;;;;10.93;5.07;;;;;;;12.02;68.78;100758.94;5006033;28;20034;-77
2023/10/14 04:44:59;;;;;;;9.18;4.55;;;;;;;11.99;69.38;100762.31;4991775;28;20029;-73
2023/10/14 04:47:35;;;;;;;17.92;5.00;;;;;;;11.95;69.93;100765.53;4996876;28;20030;-75
2023/10/14 04:50:14;;;;;;;9.05;4.82;;;;;;;11.94;70.07;100758.63;4995320;28;20093;-73
2023/10/14 04:52:48;;;;;;;13.00;5.07;;;;;;;11.85;70.99;100766.94;4997538;28;20030;-78
2023/10/14 04:58:05;;;;;;;11.10;5.03;;;;;;;11.91;71.37;100771.44;4991515;28;20030;-76
2023/10/14 05:00:41;;;;;;;11.65;5.05;;;;;;;11.81;72.11;100745.25;5010085;28;20038;-75
2023/10/14 05:03:09;;;;;;;11.38;4.75;;;;;;;11.88;73.07;100771.34;4991766;28;20027;-75
2023/10/14 05:05:38;;;;;;;8.55;4.55;;;;;;;11.99;72.98;100780.41;5009553;28;20472;-73
2023/10/14 05:08:05;;;;;;;12.45;5.05;;;;;;;11.94;72.75;100777.63;5011203;28;20061;-73
2023/10/14 05:10:31;;;;;;;11.70;5.20;;;;;;;11.97;72.74;100769.13;5010446;28;20030;-75
2023/10/14 05:12:57;;;;;;;8.40;4.85;;;;;;;12.03;72.68;100777.09;5025402;28;20040;-75
2023/10/14 05:15:27;;;;;;;10.80;4.57;;;;;;;11.85;72.67;100732.41;5025733;28;20507;-75
2023/10/14 05:17:54;;;;;;;9.23;5.45;;;;;;;12.09;73.08;100777.31;5023785;28;20076;-76
2023/10/14 05:20:29;;;;;;;9.00;4.32;;;;;;;12.15;73.26;100779.25;5010599;28;20032;-73
2023/10/14 05:22:56;;;;;;;16.30;4.93;;;;;;;12.02;73.35;100748.59;5008421;28;20025;-75
2023/10/14 05:25:27;;;;;;;10.40;4.93;;;;;;;12.24;73.83;100787.34;5021362;28;20040;-75
2023/10/14 05:27:58;;;;;;;8.88;4.88;;;;;;;12.28;74.05;100793.50;4996116;28;20042;-76
2023/10/14 05:30:32;;;;;;;11.50;5.38;;;;;;;12.27;74.22;100781.38;5025398;28;20508;-75
2023/10/14 05:33:06;;;;;;;8.65;5.60;;;;;;;12.35;74.57;100782.53;5009803;28;20034;-75
2023/10/14 05:35:37;;;;;;;11.25;6.22;;;;;;;12.00;76.42;100789.03;5006078;28;20069;-79
2023/10/14 05:38:09;;;;;;;10.93;7.38;;;;;;;11.93;77.08;100786.19;5025162;28;20741;-73
2023/10/14 05:40:39;;;;;;;9.77;4.88;;;;;;;11.77;78.15;100795.09;5009128;28;20026;-71
2023/10/14 05:43:06;;;;;;;15.02;5.05;;;;;;;11.72;79.20;100783.69;5007156;28;20121;-72
2023/10/14 05:45:34;;;;;;;13.02;5.55;;;;;;;11.67;80.12;100797.31;5010069;28;20025;-75
2023/10/14 05:48:00;;;;;;;58.67;7.45;;;;;;;11.69;81.17;100805.97;5010006;28;20043;-75
2023/10/14 05:50:26;;;;;;;32.33;6.18;;;;;;;11.80;80.83;100805.56;5025428;28;20476;-74
2023/10/14 05:52:51;;;;;;;11.63;4.95;;;;;;;11.92;80.45;100792.19;5009706;28;20030;-71
2023/10/14 05:55:19;;;;;;;9.75;5.35;;;;;;;12.16;80.49;100799.09;5004340;28;20050;-77
2023/10/14 05:57:47;;;;;;;13.82;6.35;;;;;;;12.43;79.60;100798.34;5007053;28;20484;-72
2023/10/14 06:00:21;;;;;;;13.73;8.07;;;;;;;12.69;78.51;100801.81;5057603;28;20033;-77
2023/10/14 06:02:53;;;;;;;10.50;6.43;;;;;;;12.85;78.10;100790.25;5022681;28;20037;-75
2023/10/14 06:05:23;;;;;;;8.55;4.93;;;;;;;13.05;77.51;100797.81;5009676;28;20042;-73
2023/10/14 06:07:48;;;;;;;10.77;5.57;;;;;;;13.25;76.75;100793.25;5007567;28;20388;-74
2023/10/14 06:10:20;;;;;;;12.80;5.65;;;;;;;13.40;75.72;100795.47;5007665;28;20038;-76
2023/10/14 06:12:52;;;;;;;13.60;5.70;;;;;;;13.52;74.79;100781.97;5008972;28;20024;-74
2023/10/14 06:15:19;;;;;;;9.75;5.82;;;;;;;13.78;74.21;100790.50;5025600;28;20029;-75
2023/10/14 06:17:48;;;;;;;12.43;5.68;;;;;;;13.97;73.69;100794.53;5009434;28;20030;-75
2023/10/14 06:20:16;;;;;;;17.42;6.72;;;;;;;14.04;73.21;100786.09;5022887;28;20017;-75
2023/10/14 06:22:42;;;;;;;11.30;5.65;;;;;;;14.18;72.96;100788.16;5007632;28;20141;-75
2023/10/14 06:25:15;;;;;;;11.07;5.80;;;;;;;14.06;72.77;100755.84;5007793;28;20022;-75
2023/10/14 06:27:45;;;;;;;14.57;5.88;;;;;;;14.47;71.86;100788.94;5006060;28;20554;-74
2023/10/14 06:30:19;;;;;;;17.83;9.77;;;;;;;14.67;71.16;100794.69;5022892;28;20561;-72
2023/10/14 06:32:47;;;;;;;14.85;8.15;;;;;;;14.78;70.71;100783.69;5020597;28;20021;-71
2023/10/14 06:35:14;;;;;;;16.58;6.70;;;;;;;14.65;70.71;100778.16;5006918;28;20080;-73
2023/10/14 06:37:42;;;;;;;12.60;6.55;;;;;;;14.58;71.53;100776.25;5022558;28;20022;-72
2023/10/14 06:40:12;;;;;;;14.45;6.47;;;;;;;14.84;70.65;100770.84;5022811;28;20412;-75
2023/10/14 06:42:40;;;;;;;12.75;6.22;;;;;;;14.94;69.68;100744.25;5007460;28;20029;-75
2023/10/14 06:45:07;;;;;;;13.50;6.00;;;;;;;15.31;69.04;100765.84;5007712;28;20026;-74
2023/10/14 06:47:33;;;;;;;11.82;5.75;;;;;;;15.48;68.79;100767.97;5007897;28;20030;-76
2023/10/14 06:50:01;;;;;;;14.73;5.88;;;;;;;15.69;67.67;100773.63;5006163;28;20561;-77
2023/10/14 06:52:27;;;;;;;12.18;5.72;;;;;;;15.82;67.48;100768.69;5008233;28;20118;-73
2023/10/14 06:54:53;;;;;;;10.93;5.68;;;;;;;16.05;67.22;100770.88;5009578;28;20061;-75
2023/10/14 06:57:18;;;;;;;12.13;6.30;;;;;;;16.25;66.86;100768.63;5009049;28;20026;-77
2023/10/14 06:59:45;;;;;;;13.68;5.57;;;;;;;16.50;65.65;100769.97;5015095;28;20045;-75
2023/10/14 07:02:10;;;;;;;23.33;6.70;;;;;;;16.63;65.21;100766.72;5004807;28;20101;-72
2023/10/14 07:04:40;;;;;;;13.68;5.82;;;;;;;16.71;65.04;100760.75;5019719;28;20124;-76
2023/10/14 07:07:09;;;;;;;15.43;6.25;;;;;;;16.97;64.52;100763.81;5008453;28;20476;-78
2023/10/14 07:09:37;;;;;;;15.63;6.10;;;;;;;17.06;64.17;100750.91;5007974;28;20042;-79
2023/10/14 07:12:13;;;;;;;12.10;6.28;;;;;;;16.88;64.36;100725.38;5006985;28;20114;-79
2023/10/14 07:14:39;;;;;;;20.90;6.90;;;;;;;17.01;64.41;100751.69;5023989;28;20033;-76
2023/10/14 07:17:07;;;;;;;36.65;7.68;;;;;;;17.11;65.04;100748.38;5007692;28;20041;-73
2023/10/14 07:19:34;;;;;;;16.90;7.35;;;;;;;17.29;64.22;100751.22;5006737;28;20104;-78
2023/10/14 07:22:07;;;;;;;20.35;6.47;;;;;;;17.43;63.76;100745.31;5006656;28;20025;-75
2023/10/14 07:24:33;;;;;;;13.60;6.20;;;;;;;17.47;63.95;100731.47;5006804;28;20037;-76
2023/10/14 07:26:58;;;;;;;23.48;6.22;;;;;;;17.69;64.67;100743.03;5009352;28;20022;-73
2023/10/14 07:29:24;;;;;;;15.85;6.32;;;;;;;17.88;64.06;100743.25;5011767;28;20034;-75
2023/10/14 07:31:49;;;;;;;21.90;6.82;;;;;;;17.90;64.57;100723.28;5010603;28;20507;-75
2023/10/14 07:34:16;;;;;;;47.15;7.63;;;;;;;18.11;64.02;100735.72;5006095;28;20029;-73
2023/10/14 07:36:42;;;;;;;33.05;7.32;;;;;;;18.20;62.47;100732.31;5025959;28;20467;-71
2023/10/14 07:41:52;;;;;;;35.33;8.73;;;;;;;18.33;63.26;100708.06;4992991;28;20100;-74
2023/10/14 07:44:19;;;;;;;29.65;8.48;;;;;;;18.65;61.83;100727.47;5009950;28;20431;-79
2023/10/14 07:46:44;;;;;;;30.83;8.25;;;;;;;18.81;61.58;100731.09;5026369;28;20116;-77
2023/10/14 07:49:10;;;;;;;17.23;6.65;;;;;;;18.72;61.33;100693.53;5053135;28;20162;-75
2023/10/14 07:51:36;;;;;;;23.45;6.65;;;;;;;18.97;61.80;100725.13;5045912;28;20044;-77
2023/10/14 07:54:02;;;;;;;21.50;7.55;;;;;;;19.12;61.25;100736.56;5046992;28;20077;-76
2023/10/14 07:56:48;;;;;;;22.30;6.93;;;;;;;19.23;60.06;100737.50;5049526;28;20070;-77
2023/10/14 07:59:14;;;;;;;27.80;7.82;;;;;;;19.27;59.62;100720.94;5032705;28;20037;-76
2023/10/14 08:01:40;;;;;;;20.55;7.50;;;;;;;19.37;59.53;100720.09;5040418;28;20514;-73
2023/10/14 08:04:13;;;;;;;18.52;6.80;;;;;;;19.44;60.06;100721.03;5042140;28;20424;-76
2023/10/14 08:06:40;;;;;;;31.52;8.80;;;;;;;19.49;59.90;100707.94;5049204;28;20029;-77
2023/10/14 08:09:23;;;;;;;81.05;11.15;;;;;;;19.51;59.14;100691.34;5048809;28;20507;-79
2023/10/14 08:11:50;;;;;;;54.33;8.75;;;;;;;19.67;58.85;100692.28;5049525;28;20032;-74
2023/10/14 08:14:15;;;;;;;36.95;7.00;;;;;;;19.92;58.33;100707.25;5049396;28;20029;-75
2023/10/14 08:16:41;;;;;;;19.40;6.43;;;;;;;20.08;58.30;100714.25;5049107;28;20036;-74
2023/10/14 08:19:10;;;;;;;15.23;6.15;;;;;;;20.21;59.26;100709.88;5047430;28;20029;-75
2023/10/14 08:21:36;;;;;;;13.02;5.93;;;;;;;20.39;57.25;100713.41;5029066;28;20049;-76
2023/10/14 08:24:05;;;;;;;14.35;5.40;;;;;;;20.51;57.00;100705.53;5029234;28;20045;-76
2023/10/14 08:26:34;;;;;;;17.35;5.63;;;;;;;20.66;56.85;100699.41;5029639;28;20030;-75
2023/10/14 08:29:00;;;;;;;24.40;6.28;;;;;;;20.74;58.78;100697.69;5012632;28;20041;-74
2023/10/14 08:31:26;;;;;;;18.15;5.70;;;;;;;20.79;56.75;100688.06;5011849;28;20037;-73
2023/10/14 08:33:51;;;;;;;16.73;5.93;;;;;;;20.94;57.49;100697.66;5011870;28;20030;-73
2023/10/14 08:36:17;;;;;;;19.33;5.97;;;;;;;21.04;56.04;100693.25;5026653;28;20112;-73
2023/10/14 08:38:44;;;;;;;24.17;6.65;;;;;;;21.15;56.78;100686.22;5011740;28;20065;-73
2023/10/14 08:41:15;;;;;;;17.83;5.63;;;;;;;21.07;54.92;100660.88;5011939;28;20029;-75
2023/10/14 08:43:44;;;;;;;12.65;5.25;;;;;;;21.30;54.08;100684.44;5011721;28;20061;-76
2023/10/14 08:46:12;;;;;;;11.38;4.47;;;;;;;21.42;54.52;100684.38;5026725;28;20026;-75
2023/10/14 08:48:39;;;;;;;12.80;4.60;;;;;;;21.36;55.91;100649.38;5011295;28;20040;-76
2023/10/14 08:51:07;;;;;;;14.05;5.05;;;;;;;21.61;54.01;100681.69;5028798;28;20037;-75
2023/10/14 08:53:40;;;;;;;19.65;5.15;;;;;;;21.70;55.24;100675.50;5028404;28;20133;-72
2023/10/14 08:56:07;;;;;;;15.65;4.60;;;;;;;21.81;52.35;100671.94;5028437;28;20191;-76
2023/10/14 08:58:36;;;;;;;16.05;5.93;;;;;;;22.02;51.70;100671.78;5012093;28;20412;-72
2023/10/14 09:01:02;;;;;;;;;;;;;;;22.15;51.96;100665.56;5010309;28;20176;-77
2023/10/14 09:03:30;;;;;;;18.15;5.28;;;;;;;22.20;52.28;100666.41;5026117;28;20011;-74
2023/10/14 09:05:57;;;;;;;19.17;6.40;;;;;;;22.29;52.21;100655.81;5028284;28;20037;-74
2023/10/14 09:08:24;;;;;;;19.02;7.03;;;;;;;22.39;50.41;100653.13;5011817;28;20029;-76
2023/10/14 09:10:50;;;;;;;13.30;5.75;;;;;;;22.53;51.49;100651.25;5012162;28;20044;-73
2023/10/14 09:13:22;;;;;;;18.75;5.90;;;;;;;22.70;50.34;100651.06;5009042;28;20029;-73
2023/10/14 09:15:49;;;;;;;19.35;5.40;;;;;;;22.74;48.73;100650.16;5028093;28;20041;-76
2023/10/14 09:18:16;;;;;;;17.10;6.55;;;;;;;22.70;48.81;100621.25;5011702;28;20567;-74
2023/10/14 09:20:43;;;;;;;14.13;5.43;;;;;;;22.73;50.23;100615.94;5028392;28;20041;-72
2023/10/14 09:23:18;;;;;;;12.32;5.15;;;;;;;23.02;50.90;100639.31;5011804;28;20443;-76
2023/10/14 09:25:52;;;;;;;19.60;4.75;;;;;;;22.94;47.83;100623.59;5011752;28;20026;-73
2023/10/14 09:28:23;;;;;;;30.65;6.95;;;;;;;23.15;47.78;100631.25;5008361;28;20034;-75
2023/10/14 09:30:50;;;;;;;16.08;5.40;;;;;;;23.19;47.34;100607.53;5026166;28;20556;-76
2023/10/14 09:33:19;;;;;;;10.35;5.05;;;;;;;23.40;46.89;100626.56;5010926;28;20029;-78
2023/10/14 09:35:48;;;;;;;;;;;;;;;23.50;45.56;100622.03;5011365;28;20025;-74
2023/10/14 09:38:19;;;;;;;14.30;5.03;;;;;;;23.64;47.17;100619.19;5010893;28;19932;-72
2023/10/14 09:40:59;;;;;;;14.23;5.07;;;;;;;23.78;43.70;100611.09;5010971;28;20108;-77
2023/10/14 09:43:25;;;;;;;7.88;3.97;;;;;;;23.69;43.19;100588.38;5011305;28;20075;-79
2023/10/14 09:45:55;;;;;;;12.00;3.83;;;;;;;23.92;42.49;100603.00;5012256;28;20117;-75
2023/10/14 09:48:24;;;;;;;13.60;4.07;;;;;;;23.89;43.52;100602.13;5011069;28;20030;-76
2023/10/14 09:50:50;;;;;;;10.70;4.20;;;;;;;24.10;42.60;100599.19;5011750;28;20033;-75
2023/10/14 09:53:18;;;;;;;8.43;4.10;;;;;;;24.11;42.34;100585.09;5010715;28;20042;-73
2023/10/14 09:55:44;;;;;;;9.13;4.80;;;;;;;24.15;42.49;100573.59;5026175;28;20054;-79
2023/10/14 09:58:18;;;;;;;12.07;4.47;;;;;;;24.30;41.98;100568.06;5026018;28;20026;-79
2023/10/14 10:00:44;;;;;;;15.35;4.55;;;;;;;24.38;42.95;100560.84;5025619;28;20143;-75
2023/10/14 10:03:11;;;;;;;12.18;4.80;;;;;;;24.42;41.59;100550.25;5024676;28;20053;-74
2023/10/14 10:05:41;;;;;;;11.43;4.60;;;;;;;24.27;41.52;100532.94;5009029;28;20099;-76
2023/10/14 10:08:25;;;;;;;9.10;4.20;;;;;;;24.51;41.27;100558.84;5009441;28;20135;-79
2023/10/14 10:10:51;;;;;;;8.90;4.22;;;;;;;24.57;41.26;100543.78;5009410;28;20056;-74
2023/10/14 10:13:17;;;;;;;16.50;5.15;;;;;;;24.68;41.78;100540.06;5010485;28;20392;-73
2023/10/14 10:15:45;;;;;;;11.88;4.35;;;;;;;24.93;40.97;100542.19;5009183;28;20150;-73
2023/10/14 10:18:16;;;;;;;10.23;4.00;;;;;;;25.13;40.41;100543.53;5010178;28;20037;-74
2023/10/14 10:20:57;;;;;;;10.75;4.05;;;;;;;25.15;40.32;100542.59;5009771;28;20125;-73
2023/10/14 10:23:24;;;;;;;15.98;4.22;;;;;;;25.05;40.73;100522.56;5009747;28;20372;-79
2023/10/14 10:26:17;;;;;;;11.88;5.10;;;;;;;25.04;41.12;100524.31;5025706;28;20060;-75
2023/10/14 10:28:45;;;;;;;12.25;4.90;;;;;;;25.24;40.10;100517.72;5023541;28;20026;-77
2023/10/14 10:31:15;;;;;;;15.35;5.35;;;;;;;25.28;40.28;100519.38;5023399;28;20116;-76
2023/10/14 10:33:50;;;;;;;16.25;5.30;;;;;;;25.42;40.59;100520.88;5008821;28;20044;-76
2023/10/14 10:36:27;;;;;;;12.60;4.70;;;;;;;25.43;41.16;100512.03;5010273;28;20101;-76
2023/10/14 10:38:54;;;;;;;13.93;4.38;;;;;;;25.36;40.15;100498.09;5010047;28;20120;-76
2023/10/14 10:41:24;;;;;;;13.23;5.00;;;;;;;25.41;40.21;100476.84;5027721;28;20038;-75
2023/10/14 10:43:50;;;;;;;13.35;4.68;;;;;;;25.69;41.79;100490.25;5028959;28;20041;-77
2023/10/14 10:46:39;;;;;;;13.05;5.75;;;;;;;25.70;40.46;100485.84;5014135;28;20041;-73
2023/10/14 10:49:06;;;;;;;13.75;4.97;;;;;;;25.85;39.95;100474.84;5013972;28;20535;-79
2023/10/14 10:51:35;;;;;;;15.98;4.95;;;;;;;25.93;39.04;100466.72;5012181;28;20033;-79
2023/10/14 10:54:01;;;;;;;17.23;4.97;;;;;;;26.08;41.07;100462.81;5012519;28;20054;-75
2023/10/14 10:56:33;;;;;;;15.13;5.40;;;;;;;26.28;38.91;100459.59;5012430;28;20100;-76
2023/10/14 10:59:01;;;;;;;16.23;4.95;;;;;;;26.35;38.50;100455.03;5012687;28;20030;-75
2023/10/14 11:01:33;;;;;;;12.17;4.13;;;;;;;26.28;37.75;100460.50;5007267;28;20037;-77
2023/10/14 11:04:09;;;;;;;12.00;4.88;;;;;;;26.07;37.72;100454.03;5015773;28;20161;-75
2023/10/14 11:06:35;;;;;;;11.88;4.28;;;;;;;26.15;38.71;100449.34;5003121;28;20050;-75
2023/10/14 11:09:01;;;;;;;10.63;3.85;;;;;;;26.08;37.59;100416.06;5028249;28;20080;-78
2023/10/14 11:11:37;;;;;;;12.80;4.63;;;;;;;26.30;37.57;100436.63;5027791;28;20026;-78
2023/10/14 11:14:16;;;;;;;7.57;3.88;;;;;;;26.29;37.40;100433.13;5012681;28;20545;-78
2023/10/14 11:16:48;;;;;;;10.80;3.97;;;;;;;26.28;38.77;100420.78;5012318;28;20014;-78
2023/10/14 11:19:14;;;;;;;12.38;4.20;;;;;;;26.36;39.68;100425.84;5010911;28;20030;-75
2023/10/14 11:21:43;;;;;;;11.55;4.40;;;;;;;26.43;39.19;100411.53;5022573;28;20034;-75
2023/10/14 11:24:08;;;;;;;;;;;;;;;26.55;39.52;100410.28;5011517;28;20164;-76
2023/10/14 11:26:37;;;;;;;11.88;4.60;;;;;;;26.62;38.71;100411.81;5012853;28;20003;-76
2023/10/14 11:29:03;;;;;;;8.02;4.00;;;;;;;26.66;39.09;100396.72;5027676;28;20578;-73
2023/10/14 11:31:30;;;;;;;11.15;4.00;;;;;;;26.79;39.45;100397.22;5012817;28;20112;-76
2023/10/14 11:34:01;;;;;;;14.32;4.13;;;;;;;26.74;37.97;100365.59;5012499;28;20168;-75
2023/10/14 11:36:27;;;;;;;6.80;4.15;;;;;;;26.94;38.52;100394.09;5008922;28;20030;-76
2023/10/14 11:38:58;;;;;;;11.70;4.20;;;;;;;27.02;36.69;100391.19;5028122;28;20025;-77
2023/10/14 11:41:25;;;;;;;19.73;4.50;;;;;;;26.78;35.76;100351.34;5028337;28;20125;-73
2023/10/14 11:43:51;;;;;;;24.98;4.82;;;;;;;27.05;35.63;100383.13;5012621;28;20559;-76
2023/10/14 11:46:18;;;;;;;9.88;4.00;;;;;;;26.88;35.29;100378.41;5069686;28;20674;-74
2023/10/14 11:48:45;;;;;;;22.25;4.43;;;;;;;26.90;35.71;100373.91;5070025;28;20041;-78
2023/10/14 11:51:13;;;;;;;11.35;4.68;;;;;;;26.92;35.58;100369.44;5067443;28;20473;-76
2023/10/14 11:53:43;;;;;;;14.60;4.20;;;;;;;26.83;35.95;100361.78;5028985;28;20045;-78
2023/10/14 11:56:13;;;;;;;11.63;4.57;;;;;;;26.92;36.45;100368.56;5028830;28;20088;-78
2023/10/14 11:58:40;;;;;;;10.43;4.88;;;;;;;27.02;37.55;100356.75;5013207;28;20438;-75
2023/10/14 12:01:06;;;;;;;9.50;4.38;;;;;;;27.06;37.69;100354.84;5029714;28;20511;-73
2023/10/14 12:03:32;;;;;;;14.60;4.88;;;;;;;27.11;37.81;100352.91;5029729;28;20033;-75
2023/10/14 12:05:59;;;;;;;14.63;4.70;;;;;;;27.11;35.81;100350.28;5029869;28;20561;-77
2023/10/14 12:08:29;;;;;;;13.02;4.53;;;;;;;26.56;36.02;100337.88;5027773;28;20147;-75
2023/10/14 12:10:54;;;;;;;16.13;5.13;;;;;;;26.52;36.79;100344.19;5029648;28;20524;-70